Startpagina
METAR-TAF:

METAR-TAF

Vliegvelden :

Saskatoon, Saskatchewan, Canada

breedte: 52-10N, lengte: 106-41W, hoogte: 501 m

Actueel weer

Dit bericht is 47 minuten geleden gemaakt, om 00:00 UTC
Wind 3 kt uit het westen, variërend tussen het westzuidwesten en het noordwesten
Temperatuur 27°C
Vochtigheid 34%
Druk 1018 hPa
Zicht: 24.1 km
Weinig wolken op 7000 ft

METAR: CYXE 270000Z 28003KT 240V320 15SM FEW070 27/10 A3006 RMK CU1 SLP186 DENSITY ALT 3300FT

Tijdstip: 18:47 (00:47 UTC)

Verwachting

Dit bericht is 1 uur en het 9 minuten geleden gemaakt, om 23:38 UTC
Verwachting geldig van 27 om 00 UTC tot 27 om 24 UTC
Wind 5 kt uit het westzuidwesten
Zicht: 10 km
Weinig wolken op 7000 ft
Van 27 om 0300 UTC
Wind 7 kt uit het oosten
Zicht: 10 km
Onbewolkt
Van 27 om 1800 UTC
Wind 10 kt uit het zuidoosten
Zicht: 10 km
Weinig wolken op 6000 ft

TAF: CYXE 262338Z 2700/2724 24005KT P6SM FEW070 FM270300 10007KT P6SM SKC FM271800 14010KT P6SM FEW060 RMK NXT FCST BY 270600Z

Waarnemingen en weersverwachtingen van meer dan 4000 vliegvelden (METAR en TAF).

De beschikbare stations zijn de gele en rode punten op de kaart.

Ga met uw muis naar het station om de naam te zien.

Klik dan om waarnemingen en weersverwachtingen te zien.

kaart wijzigen: klik op de groene knoppen met een zwart kruis om in te zoomen, op de groene knop met een streepje om uit te zoomen of op de groene pijlen voor aangrenzende kaarten.


METAR-TAF: